Time;durP1;ratioP1;P1;durP2;ratioP2;P2;SDS_P1;SDS_P2;PMS_P1;PMS_P2;Temp;Humidity;BMP_temperature;BMP_pressure;BME280_temperature;BME280_humidity;BME280_pressure;Samples;Min_cycle;Max_cycle;Signal;HPM_P1;HPM_P2
2022/06/02 00:01:57;;;;;;;;;;;14.10;99.90;;;;;;5086219;28;19920;-86
2022/06/02 00:04:47;;;;;;;;;;;14.20;99.90;;;;;;5085487;28;19991;-85
2022/06/02 00:07:18;;;;;;;;;;;14.20;99.90;;;;;;5073475;28;19921;-85
2022/06/02 00:09:53;;;;;;;;;;;14.10;99.90;;;;;;5086269;28;19920;-85
2022/06/02 00:12:25;;;;;;;;;;;14.20;99.90;;;;;;5088760;28;19943;-87
2022/06/02 00:14:57;;;;;;;;;;;14.20;99.90;;;;;;5089198;28;19926;-87
2022/06/02 00:17:27;;;;;;;;;;;14.20;99.90;;;;;;5087402;28;19920;-87
2022/06/02 00:19:58;;;;;;;;;;;14.10;99.90;;;;;;5087518;28;20055;-87
2022/06/02 00:22:29;;;;;;;;;;;14.00;99.90;;;;;;5087035;28;19921;-87
2022/06/02 00:25:00;;;;;;;;;;;13.90;99.90;;;;;;5087187;28;19992;-87
2022/06/02 00:27:31;;;;;;;;;;;13.90;99.90;;;;;;5086628;28;19966;-88
2022/06/02 00:30:03;;;;;;;;;;;13.90;99.90;;;;;;5086927;28;19920;-86
2022/06/02 00:32:35;;;;;;;;;;;13.90;99.90;;;;;;5087163;28;19966;-87
2022/06/02 00:35:11;;;;;;;;;;;13.90;99.90;;;;;;5086853;28;19920;-87
2022/06/02 00:37:43;;;;;;;;;;;13.90;99.90;;;;;;5087090;28;19928;-87
2022/06/02 00:40:10;;;;;;;;;;;13.80;99.90;;;;;;5086896;28;19947;-87
2022/06/02 00:42:41;;;;;;;;;;;13.70;99.90;;;;;;5086317;28;20230;-87
2022/06/02 00:45:11;;;;;;;;;;;13.70;99.90;;;;;;5086678;28;20270;-87
2022/06/02 00:47:49;;;;;;;;;;;13.70;99.90;;;;;;5086756;28;19987;-86
2022/06/02 00:50:25;;;;;;;;;;;13.60;99.90;;;;;;5086477;28;19927;-87
2022/06/02 00:53:25;;;;;;;;;;;13.60;99.90;;;;;;5085271;28;19926;-87
2022/06/02 00:58:50;;;;;;;;;;;13.50;99.90;;;;;;5085966;28;19922;-86
2022/06/02 01:01:22;;;;;;;;;;;13.50;99.90;;;;;;5085819;28;19921;-87
2022/06/02 01:04:20;;;;;;;;;;;13.40;99.90;;;;;;5084669;28;19979;-86
2022/06/02 01:06:59;;;;;;;;;;;13.30;99.90;;;;;;5085329;28;19928;-86
2022/06/02 01:09:48;;;;;;;;;;;13.20;99.90;;;;;;5085744;28;19927;-86
2022/06/02 01:12:24;;;;;;;;;;;13.20;99.90;;;;;;5085536;28;20290;-88
2022/06/02 01:14:56;;;;;;;;;;;13.20;99.90;;;;;;5085113;28;20123;-87
2022/06/02 01:17:28;;;;;;;;;;;13.10;99.90;;;;;;5084726;28;19920;-87
2022/06/02 01:20:19;;;;;;;;;;;13.10;99.90;;;;;;5085198;28;19983;-87
2022/06/02 01:22:55;;;;;;;;;;;13.10;99.90;;;;;;5069907;28;19991;-87
2022/06/02 01:25:35;;;;;;;;;;;13.00;99.90;;;;;;5085078;28;19927;-86
2022/06/02 01:28:12;;;;;;;;;;;13.00;99.90;;;;;;5085398;28;19920;-86
2022/06/02 01:30:45;;;;;;;;;;;13.00;99.90;;;;;;5085027;28;19987;-87
2022/06/02 01:33:16;;;;;;;;;;;12.90;99.90;;;;;;5085309;28;20015;-87
2022/06/02 01:35:49;;;;;;;;;;;13.00;99.90;;;;;;5084545;28;19920;-86
2022/06/02 01:38:19;;;;;;;;;;;13.00;99.90;;;;;;5085420;28;19936;-86
2022/06/02 01:40:51;;;;;;;;;;;13.00;99.90;;;;;;5085119;28;19920;-86
2022/06/02 01:43:20;;;;;;;;;;;13.00;99.90;;;;;;5084970;28;19920;-87
2022/06/02 01:45:58;;;;;;;;;;;13.10;99.90;;;;;;5084888;28;19927;-87
2022/06/02 01:48:30;;;;;;;;;;;13.00;99.90;;;;;;5084945;28;19920;-85
2022/06/02 01:51:03;;;;;;;;;;;13.00;99.90;;;;;;5083685;28;19927;-86
2022/06/02 01:53:37;;;;;;;;;;;13.00;99.90;;;;;;5084719;28;19942;-86
2022/06/02 01:56:11;;;;;;;;;;;13.00;99.90;;;;;;5084568;28;19921;-86
2022/06/02 01:58:46;;;;;;;;;;;13.00;99.90;;;;;;5084995;28;19926;-86
2022/06/02 02:01:16;;;;;;;;;;;13.00;99.90;;;;;;5084916;28;19921;-87
2022/06/02 02:03:50;;;;;;;;;;;12.90;99.90;;;;;;5084808;28;19921;-86
2022/06/02 02:06:23;;;;;;;;;;;12.90;99.90;;;;;;5083948;28;20234;-85
2022/06/02 02:08:55;;;;;;;;;;;12.90;99.90;;;;;;5084764;28;19926;-85
2022/06/02 02:11:37;;;;;;;;;;;12.90;99.90;;;;;;5084472;28;19974;-86
2022/06/02 02:14:07;;;;;;;;;;;12.90;99.90;;;;;;5084453;28;19991;-87
2022/06/02 02:16:40;;;;;;;;;;;12.90;99.90;;;;;;5084370;28;19995;-86
2022/06/02 02:19:15;;;;;;;;;;;12.90;99.90;;;;;;5084248;28;19924;-85
2022/06/02 02:21:45;;;;;;;;;;;12.90;99.90;;;;;;5083971;28;19991;-86
2022/06/02 02:24:21;;;;;;;;;;;12.80;99.90;;;;;;5084172;28;19921;-85
2022/06/02 02:27:00;;;;;;;;;;;12.80;99.90;;;;;;5082953;28;19992;-86
2022/06/02 02:29:32;;;;;;;;;;;12.70;99.90;;;;;;5075413;28;19927;-86
2022/06/02 02:32:05;;;;;;;;;;;12.70;99.90;;;;;;5084643;28;19920;-86
2022/06/02 02:34:37;;;;;;;;;;;12.60;99.90;;;;;;5084300;28;19927;-86
2022/06/02 02:37:24;;;;;;;;;;;12.50;99.90;;;;;;5082908;28;20234;-85
2022/06/02 02:40:17;;;;;;;;;;;12.50;99.90;;;;;;5083901;28;20195;-86
2022/06/02 02:42:48;;;;;;;;;;;12.40;99.90;;;;;;5070449;28;19920;-85
2022/06/02 02:45:29;;;;;;;;;;;12.40;99.90;;;;;;5084185;28;19920;-86
2022/06/02 02:48:00;;;;;;;;;;;12.30;99.90;;;;;;5083894;28;19944;-86
2022/06/02 02:50:28;;;;;;;;;;;12.30;99.90;;;;;;5083922;28;20135;-86
2022/06/02 02:52:56;;;;;;;;;;;12.30;99.90;;;;;;5083742;28;19921;-87
2022/06/02 02:55:26;;;;;;;;;;;12.20;99.90;;;;;;5083503;28;19920;-86
2022/06/02 02:57:55;;;;;;;;;;;12.20;99.90;;;;;;5083499;28;19921;-85
2022/06/02 03:00:23;;;;;;;;;;;12.10;99.90;;;;;;5083451;28;20211;-86
2022/06/02 03:03:05;;;;;;;;;;;12.10;99.90;;;;;;5076163;28;19986;-86
2022/06/02 03:05:40;;;;;;;;;;;12.00;99.90;;;;;;5076774;28;19928;-86
2022/06/02 03:08:10;;;;;;;;;;;12.00;99.90;;;;;;5066243;28;19920;-86
2022/06/02 03:10:38;;;;;;;;;;;11.90;99.90;;;;;;5063702;28;19956;-87
2022/06/02 03:13:14;;;;;;;;;;;11.90;99.90;;;;;;5063614;28;19952;-87
2022/06/02 03:15:43;;;;;;;;;;;11.80;99.90;;;;;;5063649;28;19920;-86
2022/06/02 03:18:30;;;;;;;;;;;11.80;99.90;;;;;;5064004;28;19989;-86
2022/06/02 03:21:02;;;;;;;;;;;11.70;99.90;;;;;;5067692;28;19921;-86
2022/06/02 03:23:34;;;;;;;;;;;11.60;99.90;;;;;;5067669;28;19988;-86
2022/06/02 03:26:03;;;;;;;;;;;11.60;99.90;;;;;;5067363;28;20278;-87
2022/06/02 03:28:36;;;;;;;;;;;11.50;99.90;;;;;;5067072;28;19941;-86
2022/06/02 03:31:08;;;;;;;;;;;11.50;99.90;;;;;;5067632;28;19921;-86
2022/06/02 03:33:56;;;;;;;;;;;11.40;99.90;;;;;;5067116;28;19988;-87
2022/06/02 03:36:33;;;;;;;;;;;11.40;99.90;;;;;;5065436;28;19967;-87
2022/06/02 03:39:04;;;;;;;;;;;11.30;99.90;;;;;;5087247;28;20118;-86
2022/06/02 03:41:40;;;;;;;;;;;11.30;99.90;;;;;;5086924;28;19920;-86
2022/06/02 03:44:13;;;;;;;;;;;11.20;99.90;;;;;;5087160;28;19921;-85
2022/06/02 03:46:51;;;;;;;;;;;11.20;99.90;;;;;;5086828;28;20129;-86
2022/06/02 03:49:36;;;;;;;;;;;11.20;99.90;;;;;;5086705;28;19920;-86
2022/06/02 03:52:15;;;;;;;;;;;11.20;99.90;;;;;;5079748;28;20219;-86
2022/06/02 03:54:53;;;;;;;;;;;11.20;99.90;;;;;;5067072;28;19976;-87
2022/06/02 03:57:26;;;;;;;;;;;11.10;99.90;;;;;;5066488;28;19940;-86
2022/06/02 04:00:07;;;;;;;;;;;11.20;99.90;;;;;;5066706;28;19962;-87
2022/06/02 04:02:42;;;;;;;;;;;11.10;99.90;;;;;;5067414;28;19920;-86
2022/06/02 04:05:30;;;;;;;;;;;11.10;99.90;;;;;;5066473;28;19927;-85
2022/06/02 04:08:06;;;;;;;;;;;11.10;99.90;;;;;;5066742;28;19921;-86
2022/06/02 04:10:36;;;;;;;;;;;11.20;99.90;;;;;;5074648;28;19983;-86
2022/06/02 04:16:05;;;;;;;;;;;11.10;99.90;;;;;;5065758;28;19967;-86
2022/06/02 04:18:37;;;;;;;;;;;11.10;99.90;;;;;;5082197;28;19927;-85
2022/06/02 04:21:10;;;;;;;;;;;11.10;99.90;;;;;;5086224;28;20219;-87
2022/06/02 04:23:42;;;;;;;;;;;11.20;99.90;;;;;;5086152;28;20203;-87
2022/06/02 04:26:16;;;;;;;;;;;11.20;99.90;;;;;;5085813;28;19924;-87
2022/06/02 04:28:47;;;;;;;;;;;11.30;99.90;;;;;;5090510;28;19926;-87
2022/06/02 04:31:19;;;;;;;;;;;11.40;99.90;;;;;;5090454;28;19992;-88
2022/06/02 04:33:50;;;;;;;;;;;11.40;99.90;;;;;;5091196;28;19981;-88
2022/06/02 04:36:25;;;;;;;;;;;11.40;99.90;;;;;;5090102;28;19996;-88
2022/06/02 04:38:58;;;;;;;;;;;11.40;99.90;;;;;;5091414;28;19920;-86
2022/06/02 04:41:32;;;;;;;;;;;11.50;99.90;;;;;;5091598;28;20820;-87
2022/06/02 04:44:02;;;;;;;;;;;11.60;99.90;;;;;;5090460;28;19979;-88
2022/06/02 04:46:35;;;;;;;;;;;11.70;99.90;;;;;;5088893;28;19992;-87
2022/06/02 04:49:04;;;;;;;;;;;11.70;99.90;;;;;;5089693;28;19921;-87
2022/06/02 04:51:35;;;;;;;;;;;11.70;99.90;;;;;;5090794;28;19991;-87
2022/06/02 04:54:12;;;;;;;;;;;11.80;99.90;;;;;;5088717;28;19920;-88
2022/06/02 04:56:44;;;;;;;;;;;11.80;99.90;;;;;;5090881;28;19962;-88
2022/06/02 04:59:15;;;;;;;;;;;11.90;99.90;;;;;;5070701;28;19984;-88
2022/06/02 05:01:47;;;;;;;;;;;11.90;99.90;;;;;;5087596;28;20004;-87
2022/06/02 05:04:20;;;;;;;;;;;11.90;99.90;;;;;;5086623;28;19958;-86
2022/06/02 05:06:50;;;;;;;;;;;12.00;99.90;;;;;;5086915;28;19962;-88
2022/06/02 05:09:22;;;;;;;;;;;12.00;99.90;;;;;;5088327;28;19988;-87
2022/06/02 05:11:54;;;;;;;;;;;12.10;99.90;;;;;;5086754;28;19924;-86
2022/06/02 05:14:29;;;;;;;;;;;12.20;99.90;;;;;;5085758;28;19951;-88
2022/06/02 05:16:58;;;;;;;;;;;12.30;99.90;;;;;;5085592;28;19926;-87
2022/06/02 05:19:43;;;;;;;;;;;12.40;99.90;;;;;;5085468;28;20018;-86
2022/06/02 05:22:31;;;;;;;;;;;12.60;99.90;;;;;;5085466;28;19921;-86
2022/06/02 05:25:15;;;;;;;;;;;12.70;99.90;;;;;;5065166;28;20178;-88
2022/06/02 05:27:55;;;;;;;;;;;12.80;99.90;;;;;;5064663;28;19983;-89
2022/06/02 05:30:39;;;;;;;;;;;12.90;99.90;;;;;;5066758;28;19992;-89
2022/06/02 05:33:11;;;;;;;;;;;13.00;99.90;;;;;;5066426;28;20155;-89
2022/06/02 05:36:01;;;;;;;;;;;13.00;99.90;;;;;;5066288;28;20155;-87
2022/06/02 05:38:42;;;;;;;;;;;13.10;99.90;;;;;;5065131;28;19920;-89
2022/06/02 05:41:14;;;;;;;;;;;13.20;99.90;;;;;;5062591;28;19927;-88
2022/06/02 05:43:46;;;;;;;;;;;13.30;99.90;;;;;;5076981;28;19920;-89
2022/06/02 05:46:24;;;;;;;;;;;13.40;99.90;;;;;;5065591;28;19921;-88
2022/06/02 05:48:58;;;;;;;;;;;13.40;99.90;;;;;;5063614;28;19983;-88
2022/06/02 05:51:27;;;;;;;;;;;13.50;99.90;;;;;;5078252;28;19920;-87
2022/06/02 05:53:58;;;;;;;;;;;13.60;99.90;;;;;;5082942;28;19928;-87
2022/06/02 05:56:29;;;;;;;;;;;13.80;99.90;;;;;;5083272;28;20127;-87
2022/06/02 05:59:03;;;;;;;;;;;13.80;99.90;;;;;;5084230;28;19987;-87
2022/06/02 06:01:39;;;;;;;;;;;13.70;99.90;;;;;;5083815;28;19965;-87
2022/06/02 06:04:21;;;;;;;;;;;13.80;99.90;;;;;;5083330;28;19924;-87
2022/06/02 06:06:50;;;;;;;;;;;13.90;99.90;;;;;;5083425;28;19920;-86
2022/06/02 06:09:24;;;;;;;;;;;14.00;99.90;;;;;;5083473;28;19920;-87
2022/06/02 06:12:15;;;;;;;;;;;14.10;99.90;;;;;;5083317;28;19920;-87
2022/06/02 06:14:50;;;;;;;;;;;14.10;99.90;;;;;;5047695;28;19920;-88
2022/06/02 06:17:20;;;;;;;;;;;14.20;99.90;;;;;;5064418;28;19921;-86
2022/06/02 06:19:52;;;;;;;;;;;14.30;99.90;;;;;;5067386;28;20122;-88
2022/06/02 06:22:31;;;;;;;;;;;14.40;99.90;;;;;;5084322;28;19928;-87
2022/06/02 06:25:04;;;;;;;;;;;14.40;99.90;;;;;;5085699;28;19992;-88
2022/06/02 06:27:33;;;;;;;;;;;14.50;99.90;;;;;;5084440;28;19927;-88
2022/06/02 06:30:06;;;;;;;;;;;14.60;99.90;;;;;;5086091;28;20204;-88
2022/06/02 06:32:37;;;;;;;;;;;14.60;99.90;;;;;;5085610;28;20126;-88
2022/06/02 06:35:09;;;;;;;;;;;14.60;99.90;;;;;;5084559;28;19920;-88
2022/06/02 06:37:59;;;;;;;;;;;14.60;99.90;;;;;;5083779;28;19920;-87
2022/06/02 06:40:37;;;;;;;;;;;14.70;99.90;;;;;;5044910;28;20097;-87
2022/06/02 06:43:08;;;;;;;;;;;14.70;99.90;;;;;;5083403;28;20211;-88
2022/06/02 06:45:42;;;;;;;;;;;14.80;99.90;;;;;;5083509;28;19992;-87
2022/06/02 06:48:14;;;;;;;;;;;14.90;99.90;;;;;;5085521;28;19970;-88
2022/06/02 06:50:44;;;;;;;;;;;15.00;99.90;;;;;;5083819;28;19991;-88
2022/06/02 06:53:19;;;;;;;;;;;15.00;99.90;;;;;;5085878;28;19921;-89
2022/06/02 06:55:56;;;;;;;;;;;15.00;99.90;;;;;;5087179;28;19927;-87
2022/06/02 06:58:36;;;;;;;;;;;15.00;99.90;;;;;;5088057;28;19924;-88
2022/06/02 07:01:08;;;;;;;;;;;15.10;99.90;;;;;;5088249;28;19920;-87
2022/06/02 07:03:39;;;;;;;;;;;15.10;99.90;;;;;;5086396;28;19928;-87
2022/06/02 07:06:10;;;;;;;;;;;15.10;99.90;;;;;;5079221;28;20263;-88
2022/06/02 07:08:38;;;;;;;;;;;15.10;99.90;;;;;;5067610;28;19921;-87
2022/06/02 07:12:50;;;;;;;;;;;15.20;99.90;;;;;;5068475;28;19921;-87
2022/06/02 07:13:57;;;;;;;;;;;15.20;99.90;;;;;;5086695;28;19920;-88
2022/06/02 07:16:28;;;;;;;;;;;15.20;99.90;;;;;;5087544;28;19958;-88
2022/06/02 07:18:58;;;;;;;;;;;15.30;99.90;;;;;;5088261;28;19920;-87
2022/06/02 07:21:29;;;;;;;;;;;15.30;99.90;;;;;;5088066;28;19927;-88
2022/06/02 07:24:09;;;;;;;;;;;15.40;99.90;;;;;;5088107;28;19952;-87
2022/06/02 07:26:41;;;;;;;;;;;15.40;99.90;;;;;;5087329;28;19921;-87
2022/06/02 07:29:14;;;;;;;;;;;15.50;99.90;;;;;;5087853;28;20119;-87
2022/06/02 07:31:54;;;;;;;;;;;15.60;99.90;;;;;;5087370;28;19921;-87
2022/06/02 07:34:31;;;;;;;;;;;15.60;99.90;;;;;;5088071;28;19920;-88
2022/06/02 07:37:04;;;;;;;;;;;15.60;99.90;;;;;;5087550;28;20261;-87
2022/06/02 07:39:40;;;;;;;;;;;15.60;99.90;;;;;;5087966;28;19968;-88
2022/06/02 07:42:11;;;;;;;;;;;15.70;99.90;;;;;;5088139;28;19927;-88
2022/06/02 07:44:54;;;;;;;;;;;15.80;99.90;;;;;;5087294;28;19984;-88
2022/06/02 07:47:34;;;;;;;;;;;15.80;99.90;;;;;;5087628;28;19962;-88
2022/06/02 07:50:05;;;;;;;;;;;15.80;99.90;;;;;;5087638;28;19979;-89
2022/06/02 07:52:48;;;;;;;;;;;15.80;99.90;;;;;;5086934;28;19987;-88
2022/06/02 07:55:20;;;;;;;;;;;15.90;99.90;;;;;;5087284;28;19983;-87
2022/06/02 07:57:54;;;;;;;;;;;15.90;99.90;;;;;;5086482;28;19920;-88
2022/06/02 08:00:21;;;;;;;;;;;15.90;99.90;;;;;;5086982;28;19983;-88
2022/06/02 08:03:05;;;;;;;;;;;15.90;99.90;;;;;;5086993;28;19920;-88
2022/06/02 08:05:36;;;;;;;;;;;16.00;99.90;;;;;;5085802;28;19921;-87
2022/06/02 08:08:05;;;;;;;;;;;16.10;99.90;;;;;;5087301;28;19926;-87
2022/06/02 08:10:39;;;;;;;;;;;16.10;99.90;;;;;;5086899;28;19940;-87
2022/06/02 08:13:09;;;;;;;;;;;16.20;99.90;;;;;;5087854;28;19920;-86
2022/06/02 08:15:39;;;;;;;;;;;16.20;99.90;;;;;;5088242;28;19920;-87
2022/06/02 08:18:18;;;;;;;;;;;16.30;99.90;;;;;;5086597;28;20012;-87
2022/06/02 08:20:52;;;;;;;;;;;16.40;99.90;;;;;;5086858;28;19951;-88
2022/06/02 08:23:30;;;;;;;;;;;16.50;99.90;;;;;;5086626;28;19987;-86
2022/06/02 08:25:59;;;;;;;;;;;16.50;99.90;;;;;;5086517;28;19925;-87
2022/06/02 08:28:40;;;;;;;;;;;16.50;99.90;;;;;;5090885;28;19920;-87
2022/06/02 08:31:12;;;;;;;;;;;16.60;99.90;;;;;;5086397;28;19955;-87
2022/06/02 08:33:43;;;;;;;;;;;16.70;99.90;;;;;;5086647;28;19920;-87
2022/06/02 08:36:14;;;;;;;;;;;16.90;99.90;;;;;;5086550;28;19920;-87
2022/06/02 08:38:50;;;;;;;;;;;16.80;99.90;;;;;;5086443;28;19920;-87
2022/06/02 08:41:35;;;;;;;;;;;16.90;99.90;;;;;;5082434;28;19927;-86
2022/06/02 08:47:27;;;;;;;;;;;16.90;99.90;;;;;;5073745;28;19915;-87
2022/06/02 08:50:12;;;;;;;;;;;17.00;99.90;;;;;;5086605;28;19988;-88
2022/06/02 08:52:51;;;;;;;;;;;17.10;99.90;;;;;;5069328;28;19926;-87
2022/06/02 08:55:36;;;;;;;;;;;17.20;99.90;;;;;;5096254;28;19920;-86
2022/06/02 08:58:21;;;;;;;;;;;17.20;99.90;;;;;;5092078;28;19921;-88
2022/06/02 09:00:53;;;;;;;;;;;17.20;99.90;;;;;;5073803;28;19920;-89
2022/06/02 09:03:57;;;;;;;;;;;17.40;99.90;;;;;;5073972;28;19985;-89
2022/06/02 09:06:42;;;;;;;;;;;17.50;99.90;;;;;;5074695;28;19921;-90
2022/06/02 09:09:38;;;;;;;;;;;17.50;99.90;;;;;;5094207;28;19951;-89
2022/06/02 09:12:12;;;;;;;;;;;17.60;99.90;;;;;;5051915;28;19931;-87
2022/06/02 09:14:57;;;;;;;;;;;17.60;99.90;;;;;;5085148;28;19980;-89
2022/06/02 09:17:27;;;;;;;;;;;17.70;99.90;;;;;;5092400;28;19920;-88
2022/06/02 09:20:07;;;;;;;;;;;17.80;99.90;;;;;;5092623;28;20208;-89
2022/06/02 09:22:44;;;;;;;;;;;17.80;99.90;;;;;;5093050;28;19927;-88
2022/06/02 09:25:17;;;;;;;;;;;17.90;99.90;;;;;;5084651;28;20138;-86
2022/06/02 09:27:53;;;;;;;;;;;18.00;99.90;;;;;;5089885;28;19943;-88
2022/06/02 09:30:24;;;;;;;;;;;18.10;99.90;;;;;;5089383;28;19943;-89
2022/06/02 09:33:33;;;;;;;;;;;18.30;99.90;;;;;;5091375;28;19920;-88
2022/06/02 09:35:52;;;;;;;;;;;18.40;99.90;;;;;;5091619;28;19927;-87
2022/06/02 09:38:27;;;;;;;;;;;18.50;99.90;;;;;;5091734;28;19920;-87
2022/06/02 09:41:01;;;;;;;;;;;18.60;99.90;;;;;;5091209;28;19988;-88
2022/06/02 09:43:56;;;;;;;;;;;18.50;99.90;;;;;;5083289;28;19985;-87
2022/06/02 09:46:41;;;;;;;;;;;18.50;99.90;;;;;;5072677;28;19984;-89
2022/06/02 09:49:17;;;;;;;;;;;18.60;99.90;;;;;;5091318;28;19981;-87
2022/06/02 09:51:53;;;;;;;;;;;18.70;99.90;;;;;;5090645;28;19976;-87
2022/06/02 09:54:26;;;;;;;;;;;18.70;99.90;;;;;;5090526;28;19921;-86
2022/06/02 09:57:04;;;;;;;;;;;18.80;99.90;;;;;;5093215;28;19932;-87
2022/06/02 09:59:36;;;;;;;;;;;19.00;99.90;;;;;;5092209;28;19992;-88
2022/06/02 10:02:12;;;;;;;;;;;19.10;99.90;;;;;;5070038;28;19931;-88
2022/06/02 10:04:46;;;;;;;;;;;19.20;99.90;;;;;;5077946;28;19979;-87
2022/06/02 10:07:31;;;;;;;;;;;19.20;99.10;;;;;;5088056;28;19920;-86
2022/06/02 10:10:03;;;;;;;;;;;19.20;99.90;;;;;;5088577;28;19920;-88
2022/06/02 10:12:55;;;;;;;;;;;19.30;98.90;;;;;;5088474;28;19992;-87
2022/06/02 10:15:30;;;;;;;;;;;19.30;99.20;;;;;;5082891;28;19988;-89
2022/06/02 10:18:02;;;;;;;;;;;19.40;99.70;;;;;;5088295;28;19950;-87
2022/06/02 10:20:44;;;;;;;;;;;19.60;98.30;;;;;;5088283;28;19925;-86
2022/06/02 10:23:18;;;;;;;;;;;19.70;99.00;;;;;;5088914;28;19976;-87
2022/06/02 10:25:55;;;;;;;;;;;19.80;99.90;;;;;;5087092;28;19983;-86
2022/06/02 10:28:44;;;;;;;;;;;20.00;99.90;;;;;;5087756;28;19920;-86
2022/06/02 10:31:29;;;;;;;;;;;20.10;98.50;;;;;;5084962;28;19921;-86
2022/06/02 10:34:17;;;;;;;;;;;20.30;98.80;;;;;;5087135;28;19920;-87
2022/06/02 10:36:53;;;;;;;;;;;20.40;97.70;;;;;;5085494;28;19927;-86
2022/06/02 10:39:30;;;;;;;;;;;20.50;98.30;;;;;;5084844;28;19927;-87
2022/06/02 10:42:04;;;;;;;;;;;20.60;97.80;;;;;;5085135;28;19991;-88
2022/06/02 10:44:47;;;;;;;;;;;20.70;97.90;;;;;;5086980;28;20259;-89
2022/06/02 10:47:33;;;;;;;;;;;20.70;97.70;;;;;;5086805;28;20023;-87
2022/06/02 10:50:01;;;;;;;;;;;20.80;96.70;;;;;;5086635;28;20212;-88
2022/06/02 10:52:47;;;;;;;;;;;20.60;97.40;;;;;;5086360;28;19984;-87
2022/06/02 10:55:31;;;;;;;;;;;20.70;98.20;;;;;;5086305;28;19988;-87
2022/06/02 10:58:10;;;;;;;;;;;20.80;98.20;;;;;;5055501;28;20024;-87
2022/06/02 11:00:55;;;;;;;;;;;20.90;97.10;;;;;;5086449;28;19980;-88
2022/06/02 11:03:41;;;;;;;;;;;21.00;96.30;;;;;;5054786;28;19920;-89
2022/06/02 11:06:27;;;;;;;;;;;21.30;97.20;;;;;;5085518;28;20131;-88
2022/06/02 11:09:11;;;;;;;;;;;21.50;96.90;;;;;;5085830;28;19920;-88
2022/06/02 11:11:50;;;;;;;;;;;21.60;98.10;;;;;;5085856;28;19987;-89
2022/06/02 11:14:35;;;;;;;;;;;21.70;96.80;;;;;;5083792;28;19920;-88
2022/06/02 11:17:20;;;;;;;;;;;21.90;95.90;;;;;;5083685;28;19927;-88
2022/06/02 11:20:04;;;;;;;;;;;21.80;94.80;;;;;;5077007;28;19920;-87
2022/06/02 11:22:41;;;;;;;;;;;21.90;94.50;;;;;;5085157;28;19926;-87
2022/06/02 11:25:23;;;;;;;;;;;22.10;94.20;;;;;;5083561;28;19995;-87
2022/06/02 11:28:11;;;;;;;;;;;22.20;96.00;;;;;;5083917;28;19984;-87
2022/06/02 11:30:53;;;;;;;;;;;22.30;93.80;;;;;;5083663;28;19988;-88
2022/06/02 11:33:48;;;;;;;;;;;22.60;94.80;;;;;;5083450;28;19927;-89
2022/06/02 11:36:40;;;;;;;;;;;22.70;94.00;;;;;;5083651;28;19920;-87
2022/06/02 11:39:25;;;;;;;;;;;22.80;92.90;;;;;;5083904;28;20290;-87
2022/06/02 11:41:58;;;;;;;;;;;22.90;92.80;;;;;;5088198;28;19929;-88
2022/06/02 11:44:33;;;;;;;;;;;22.80;92.80;;;;;;5088655;28;19943;-87
2022/06/02 11:47:07;;;;;;;;;;;22.60;92.10;;;;;;5095564;28;19921;-88
2022/06/02 11:49:55;;;;;;;;;;;22.40;93.50;;;;;;5094449;28;19988;-88
2022/06/02 11:52:52;;;;;;;;;;;22.40;93.50;;;;;;5064860;28;20190;-90
2022/06/02 11:55:23;;;;;;;;;;;22.60;94.50;;;;;;4989529;28;19922;-89
2022/06/02 11:57:58;;;;;;;;;;;22.80;92.70;;;;;;5071044;28;19920;-89
2022/06/02 12:00:45;;;;;;;;;;;22.90;93.10;;;;;;5087041;28;19928;-89
2022/06/02 12:03:36;;;;;;;;;;;23.00;93.00;;;;;;5087026;28;19921;-87
2022/06/02 12:06:22;;;;;;;;;;;23.00;92.60;;;;;;5086698;28;19924;-88
2022/06/02 12:09:03;;;;;;;;;;;23.10;92.10;;;;;;5087286;28;19921;-88
2022/06/02 12:11:35;;;;;;;;;;;23.20;92.20;;;;;;5086735;28;19920;-88
2022/06/02 12:14:08;;;;;;;;;;;23.10;92.20;;;;;;5086704;28;19983;-88
2022/06/02 12:16:45;;;;;;;;;;;23.10;93.30;;;;;;5086485;28;19980;-88
2022/06/02 12:19:21;;;;;;;;;;;23.30;92.80;;;;;;5086801;28;19929;-87
2022/06/02 12:21:57;;;;;;;;;;;23.50;92.40;;;;;;5086611;28;19920;-88
2022/06/02 12:24:42;;;;;;;;;;;23.70;92.00;;;;;;5087083;28;19988;-88
2022/06/02 12:27:17;;;;;;;;;;;23.80;91.50;;;;;;5060299;28;19984;-88
2022/06/02 12:29:56;;;;;;;;;;;23.80;90.70;;;;;;5066842;28;19928;-88
2022/06/02 12:32:32;;;;;;;;;;;23.80;91.30;;;;;;5071602;28;19921;-88
2022/06/02 12:35:16;;;;;;;;;;;23.90;91.80;;;;;;5086138;28;19991;-87
2022/06/02 12:38:00;;;;;;;;;;;24.10;92.00;;;;;;5086121;28;20286;-88
2022/06/02 12:40:30;;;;;;;;;;;24.40;92.20;;;;;;5086139;28;19988;-87
2022/06/02 12:43:22;;;;;;;;;;;24.70;91.90;;;;;;5090416;28;19928;-87
2022/06/02 12:45:52;;;;;;;;;;;24.80;90.70;;;;;;5088356;28;19920;-88
2022/06/02 12:48:30;;;;;;;;;;;25.00;91.30;;;;;;5090041;28;19920;-89
2022/06/02 12:51:02;;;;;;;;;;;25.10;90.90;;;;;;5089276;28;19980;-87
2022/06/02 12:53:41;;;;;;;;;;;25.00;90.40;;;;;;5091015;28;19924;-88
2022/06/02 12:56:31;;;;;;;;;;;24.80;89.80;;;;;;5089284;28;19921;-88
2022/06/02 12:59:16;;;;;;;;;;;24.60;90.90;;;;;;5090198;28;19920;-88
2022/06/02 13:01:50;;;;;;;;;;;24.80;91.20;;;;;;5059154;28;19920;-89
2022/06/02 13:04:50;;;;;;;;;;;24.70;90.90;;;;;;5097018;28;19988;-87
2022/06/02 13:07:32;;;;;;;;;;;24.80;90.30;;;;;;5052864;28;20067;-88
2022/06/02 13:10:16;;;;;;;;;;;24.50;90.40;;;;;;5050842;28;19984;-87
2022/06/02 13:13:02;;;;;;;;;;;24.10;90.20;;;;;;5078215;28;19954;-88
2022/06/02 13:15:33;;;;;;;;;;;24.00;90.90;;;;;;5094093;28;19920;-89
2022/06/02 13:18:10;;;;;;;;;;;24.00;90.50;;;;;;5092453;28;19921;-89
2022/06/02 13:20:43;;;;;;;;;;;24.00;90.80;;;;;;5096085;28;19928;-89
2022/06/02 13:23:34;;;;;;;;;;;23.80;90.10;;;;;;5095124;28;19976;-87
2022/06/02 13:26:22;;;;;;;;;;;23.80;90.50;;;;;;5086900;28;20139;-90
2022/06/02 13:29:19;;;;;;;;;;;23.90;90.90;;;;;;5091911;28;19972;-88
2022/06/02 13:32:06;;;;;;;;;;;23.60;90.20;;;;;;5098001;28;19920;-88
2022/06/02 13:35:03;;;;;;;;;;;23.60;90.10;;;;;;5090550;28;19976;-90
2022/06/02 13:37:45;;;;;;;;;;;23.70;90.50;;;;;;5031958;28;19922;-90
2022/06/02 13:40:29;;;;;;;;;;;23.70;90.90;;;;;;5085820;28;19983;-88
2022/06/02 13:43:05;;;;;;;;;;;23.70;91.20;;;;;;5094043;28;19984;-88
2022/06/02 13:46:02;;;;;;;;;;;23.90;91.60;;;;;;5094047;28;19984;-89
2022/06/02 13:48:45;;;;;;;;;;;24.00;91.60;;;;;;5031785;28;19993;-88
2022/06/02 13:51:29;;;;;;;;;;;24.00;90.80;;;;;;5073977;28;19983;-89
2022/06/02 13:59:58;;;;;;;;;;;24.00;92.80;;;;;;5092916;28;19927;-89
2022/06/02 14:02:41;;;;;;;;;;;24.00;91.40;;;;;;5070880;28;19931;-89
2022/06/02 14:05:27;;;;;;;;;;;23.90;91.90;;;;;;5070374;28;19927;-88
2022/06/02 14:08:04;;;;;;;;;;;23.90;92.50;;;;;;5084665;28;19927;-89
2022/06/02 14:10:52;;;;;;;;;;;23.90;91.60;;;;;;5091906;28;19970;-89
2022/06/02 14:13:28;;;;;;;;;;;24.00;91.50;;;;;;5086439;28;19920;-89
2022/06/02 14:16:03;;;;;;;;;;;24.30;91.40;;;;;;5090909;28;19944;-89
2022/06/02 14:18:39;;;;;;;;;;;24.50;91.30;;;;;;5089958;28;19987;-89
2022/06/02 14:21:08;;;;;;;;;;;24.50;90.80;;;;;;5088855;28;19920;-88
2022/06/02 14:23:43;;;;;;;;;;;24.60;90.80;;;;;;5088577;28;19980;-88
2022/06/02 14:26:16;;;;;;;;;;;24.80;90.70;;;;;;5090334;28;19934;-87
2022/06/02 14:28:57;;;;;;;;;;;24.80;90.60;;;;;;5088296;28;19979;-89
2022/06/02 14:31:32;;;;;;;;;;;24.80;90.10;;;;;;5085691;28;19921;-90
2022/06/02 14:34:03;;;;;;;;;;;24.60;90.30;;;;;;5087902;28;19980;-89
2022/06/02 14:36:33;;;;;;;;;;;24.70;90.40;;;;;;5086889;28;19984;-90
2022/06/02 14:39:06;;;;;;;;;;;24.90;90.30;;;;;;5087734;28;20111;-90
2022/06/02 14:41:40;;;;;;;;;;;24.90;90.40;;;;;;5086391;28;19927;-87
2022/06/02 14:44:13;;;;;;;;;;;25.10;91.30;;;;;;5087246;28;19983;-87
2022/06/02 14:46:46;;;;;;;;;;;25.30;90.20;;;;;;5085784;28;19920;-88
2022/06/02 14:49:28;;;;;;;;;;;25.30;90.30;;;;;;5085788;28;19924;-89
2022/06/02 14:52:02;;;;;;;;;;;25.50;90.40;;;;;;5084230;28;19920;-88
2022/06/02 14:54:38;;;;;;;;;;;25.50;90.00;;;;;;5085317;28;20280;-87
2022/06/02 14:57:13;;;;;;;;;;;25.20;90.40;;;;;;5085260;28;19954;-87
2022/06/02 14:59:49;;;;;;;;;;;25.40;90.30;;;;;;5085265;28;19928;-88
2022/06/02 15:02:34;;;;;;;;;;;25.50;89.30;;;;;;5080493;28;19985;-88
2022/06/02 15:05:15;;;;;;;;;;;25.50;90.10;;;;;;5085278;28;19999;-87
2022/06/02 15:07:57;;;;;;;;;;;25.20;89.90;;;;;;5085596;28;19927;-88
2022/06/02 15:10:30;;;;;;;;;;;25.30;90.00;;;;;;5073724;28;19988;-87
2022/06/02 15:13:15;;;;;;;;;;;25.20;89.70;;;;;;5065297;28;20215;-88
2022/06/02 15:15:57;;;;;;;;;;;25.20;90.20;;;;;;5061839;28;19923;-87
2022/06/02 15:18:46;;;;;;;;;;;25.10;90.30;;;;;;5087970;28;19976;-87
2022/06/02 15:21:19;;;;;;;;;;;24.80;90.20;;;;;;5088684;28;21126;-86
2022/06/02 15:24:06;;;;;;;;;;;24.50;90.20;;;;;;5088524;28;19944;-87
2022/06/02 15:26:51;;;;;;;;;;;24.30;90.00;;;;;;5058325;28;19928;-86
2022/06/02 15:29:23;;;;;;;;;;;24.20;90.30;;;;;;5071564;28;19948;-87